createdAt,value
2023-05-16T00:01:47.029Z,100.00
2023-05-16T00:04:13.923Z,100.00
2023-05-16T00:06:41.099Z,100.00
2023-05-16T00:09:07.797Z,100.00
2023-05-16T00:11:34.630Z,100.00
2023-05-16T00:14:01.707Z,100.00
2023-05-16T00:16:30.170Z,100.00
2023-05-16T00:19:00.942Z,100.00
2023-05-16T00:21:28.100Z,100.00
2023-05-16T00:23:54.878Z,100.00
2023-05-16T00:26:21.812Z,100.00
2023-05-16T00:28:48.664Z,100.00
2023-05-16T00:31:15.555Z,100.00
2023-05-16T00:33:42.273Z,100.00
2023-05-16T00:36:09.012Z,100.00
2023-05-16T00:38:35.856Z,100.00
2023-05-16T00:41:02.588Z,100.00
2023-05-16T00:43:29.261Z,100.00
2023-05-16T00:45:57.983Z,100.00
2023-05-16T00:48:25.477Z,100.00
2023-05-16T00:50:53.311Z,100.00
2023-05-16T00:53:23.303Z,100.00
2023-05-16T00:55:50.130Z,100.00
2023-05-16T00:58:17.318Z,100.00
2023-05-16T01:00:48.784Z,100.00
2023-05-16T01:03:16.040Z,100.00
2023-05-16T01:05:42.866Z,100.00
2023-05-16T01:08:10.095Z,100.00
2023-05-16T01:11:08.236Z,100.00
2023-05-16T01:13:53.670Z,100.00
2023-05-16T01:16:36.302Z,100.00
2023-05-16T01:19:18.702Z,100.00
2023-05-16T01:21:50.027Z,100.00
2023-05-16T01:24:24.217Z,100.00
2023-05-16T01:26:52.334Z,100.00
2023-05-16T01:29:19.591Z,100.00
2023-05-16T01:31:46.705Z,100.00
2023-05-16T01:34:13.504Z,100.00
2023-05-16T01:37:25.572Z,100.00
2023-05-16T01:40:08.089Z,100.00
2023-05-16T01:42:39.781Z,100.00
2023-05-16T01:45:13.662Z,100.00
2023-05-16T01:47:43.165Z,100.00
2023-05-16T01:50:20.133Z,100.00
2023-05-16T01:52:49.629Z,100.00
2023-05-16T01:55:24.799Z,100.00
2023-05-16T01:57:53.534Z,100.00
2023-05-16T02:00:21.078Z,100.00
2023-05-16T02:02:47.755Z,100.00
2023-05-16T02:05:16.642Z,100.00
2023-05-16T02:07:44.275Z,100.00
2023-05-16T02:10:11.806Z,100.00
2023-05-16T02:12:38.424Z,100.00
2023-05-16T02:15:05.958Z,100.00
2023-05-16T02:17:32.706Z,100.00
2023-05-16T02:19:59.789Z,100.00
2023-05-16T02:22:27.334Z,100.00
2023-05-16T02:24:54.019Z,100.00
2023-05-16T02:27:20.957Z,100.00
2023-05-16T02:29:47.587Z,100.00
2023-05-16T02:32:14.239Z,100.00
2023-05-16T02:34:40.985Z,100.00
2023-05-16T02:37:07.738Z,100.00
2023-05-16T02:39:34.425Z,100.00
2023-05-16T02:42:01.089Z,100.00
2023-05-16T02:44:27.691Z,100.00
2023-05-16T02:46:54.346Z,100.00
2023-05-16T02:49:21.228Z,100.00
2023-05-16T02:51:47.983Z,100.00
2023-05-16T02:54:14.654Z,100.00
2023-05-16T02:56:41.354Z,100.00
2023-05-16T02:59:08.940Z,100.00
2023-05-16T03:01:35.704Z,100.00
2023-05-16T03:04:02.658Z,100.00
2023-05-16T03:06:33.200Z,100.00
2023-05-16T03:08:59.926Z,100.00
2023-05-16T03:11:29.016Z,100.00
2023-05-16T03:13:55.749Z,100.00
2023-05-16T03:16:24.056Z,100.00
2023-05-16T03:18:51.950Z,100.00
2023-05-16T03:21:18.612Z,100.00
2023-05-16T03:23:45.382Z,100.00
2023-05-16T03:26:12.138Z,100.00
2023-05-16T03:28:38.838Z,100.00
2023-05-16T03:31:05.613Z,100.00
2023-05-16T03:33:32.443Z,100.00
2023-05-16T03:35:59.202Z,100.00
2023-05-16T03:38:26.020Z,100.00
2023-05-16T03:40:52.748Z,100.00
2023-05-16T03:43:19.487Z,100.00
2023-05-16T03:45:46.278Z,100.00
2023-05-16T03:48:13.043Z,100.00
2023-05-16T03:50:41.139Z,100.00
2023-05-16T03:53:09.095Z,100.00
2023-05-16T03:55:36.010Z,100.00
2023-05-16T03:58:02.690Z,100.00
2023-05-16T04:00:29.592Z,100.00
2023-05-16T04:02:56.827Z,100.00
2023-05-16T04:05:23.556Z,100.00
2023-05-16T04:07:50.518Z,100.00
2023-05-16T04:10:17.388Z,100.00
2023-05-16T04:12:44.686Z,100.00
2023-05-16T04:15:11.914Z,100.00
2023-05-16T04:17:38.601Z,100.00
2023-05-16T04:20:07.068Z,100.00
2023-05-16T04:22:33.957Z,100.00
2023-05-16T04:25:00.760Z,100.00
2023-05-16T04:27:27.534Z,100.00
2023-05-16T04:29:54.230Z,100.00
2023-05-16T04:32:20.931Z,100.00
2023-05-16T04:34:48.552Z,100.00
2023-05-16T04:37:15.195Z,100.00
2023-05-16T04:39:42.713Z,100.00
2023-05-16T04:42:09.560Z,100.00
2023-05-16T04:44:36.197Z,100.00
2023-05-16T04:47:02.938Z,100.00
2023-05-16T04:49:29.610Z,100.00
2023-05-16T04:51:56.370Z,100.00
2023-05-16T04:54:23.251Z,100.00
2023-05-16T04:56:50.280Z,100.00
2023-05-16T04:59:16.980Z,100.00
2023-05-16T05:01:43.711Z,100.00
2023-05-16T05:04:10.385Z,100.00
2023-05-16T05:06:37.038Z,100.00
2023-05-16T05:09:05.807Z,100.00
2023-05-16T05:11:32.981Z,100.00
2023-05-16T05:13:59.652Z,100.00
2023-05-16T05:16:26.468Z,100.00
2023-05-16T05:18:53.317Z,100.00
2023-05-16T05:21:20.461Z,100.00
2023-05-16T05:23:47.262Z,100.00
2023-05-16T05:26:14.151Z,100.00
2023-05-16T05:28:42.155Z,100.00
2023-05-16T05:31:12.550Z,100.00
2023-05-16T05:33:39.482Z,100.00
2023-05-16T05:36:06.426Z,100.00
2023-05-16T05:38:33.232Z,100.00
2023-05-16T05:40:59.887Z,100.00
2023-05-16T05:43:26.591Z,100.00
2023-05-16T05:45:53.921Z,100.00
2023-05-16T05:48:20.862Z,100.00
2023-05-16T05:50:47.667Z,100.00
2023-05-16T05:53:14.330Z,100.00
2023-05-16T05:55:43.738Z,100.00
2023-05-16T05:58:10.421Z,100.00
2023-05-16T06:00:37.115Z,100.00
2023-05-16T06:03:03.922Z,100.00
2023-05-16T06:05:31.163Z,100.00
2023-05-16T06:07:58.106Z,100.00
2023-05-16T06:10:24.808Z,100.00
2023-05-16T06:12:51.747Z,100.00
2023-05-16T06:15:18.421Z,100.00
2023-05-16T06:17:45.158Z,100.00
2023-05-16T06:20:12.276Z,100.00
2023-05-16T06:22:39.137Z,100.00
2023-05-16T06:25:06.167Z,100.00
2023-05-16T06:27:33.517Z,100.00
2023-05-16T06:30:00.179Z,100.00
2023-05-16T06:32:26.865Z,100.00
2023-05-16T06:34:53.584Z,100.00
2023-05-16T06:37:20.305Z,100.00
2023-05-16T06:39:47.024Z,100.00
2023-05-16T06:42:13.767Z,100.00
2023-05-16T06:44:40.506Z,100.00
2023-05-16T06:47:07.396Z,100.00
2023-05-16T06:49:34.510Z,100.00
2023-05-16T06:52:02.662Z,100.00
2023-05-16T06:54:29.394Z,100.00
2023-05-16T06:56:56.418Z,100.00
2023-05-16T06:59:23.255Z,100.00
2023-05-16T07:01:50.035Z,100.00
2023-05-16T07:04:20.023Z,100.00
2023-05-16T07:06:46.730Z,100.00
2023-05-16T07:09:13.440Z,100.00
2023-05-16T07:11:40.183Z,100.00
2023-05-16T07:14:06.856Z,100.00
2023-05-16T07:16:33.723Z,100.00
2023-05-16T07:19:00.623Z,100.00
2023-05-16T07:21:28.018Z,100.00
2023-05-16T07:23:54.829Z,100.00
2023-05-16T07:26:23.331Z,100.00
2023-05-16T07:28:50.864Z,100.00
2023-05-16T07:31:17.711Z,100.00
2023-05-16T07:33:45.197Z,100.00
2023-05-16T07:36:16.631Z,100.00
2023-05-16T07:38:44.518Z,100.00
2023-05-16T07:41:11.452Z,100.00
2023-05-16T07:43:38.288Z,100.00
2023-05-16T07:46:05.886Z,100.00
2023-05-16T07:48:32.691Z,100.00
2023-05-16T07:50:59.387Z,100.00
2023-05-16T07:53:26.195Z,100.00
2023-05-16T07:55:53.282Z,100.00
2023-05-16T07:58:20.058Z,100.00
2023-05-16T08:00:46.845Z,100.00
2023-05-16T08:03:13.801Z,100.00
2023-05-16T08:05:40.800Z,100.00
2023-05-16T08:08:07.638Z,100.00
2023-05-16T08:10:34.386Z,100.00
2023-05-16T08:13:01.166Z,100.00
2023-05-16T08:15:28.613Z,100.00
2023-05-16T08:17:58.136Z,100.00
2023-05-16T08:20:25.987Z,100.00
2023-05-16T08:22:52.772Z,100.00
2023-05-16T08:25:19.928Z,100.00
2023-05-16T08:27:50.402Z,100.00
2023-05-16T08:30:17.277Z,100.00
2023-05-16T08:32:43.984Z,100.00
2023-05-16T08:35:11.382Z,100.00
2023-05-16T08:37:38.116Z,100.00
2023-05-16T08:40:08.408Z,100.00
2023-05-16T08:42:35.542Z,100.00
2023-05-16T08:45:02.814Z,100.00
2023-05-16T08:47:32.428Z,100.00
2023-05-16T08:50:01.759Z,100.00
2023-05-16T08:52:31.314Z,100.00
2023-05-16T08:57:33.885Z,100.00
2023-05-16T09:00:00.736Z,100.00
2023-05-16T09:02:30.624Z,100.00
2023-05-16T09:04:58.585Z,100.00
2023-05-16T09:07:25.394Z,100.00
2023-05-16T09:09:52.163Z,100.00
2023-05-16T09:12:20.325Z,100.00
2023-05-16T09:14:47.525Z,100.00
2023-05-16T09:17:18.410Z,100.00
2023-05-16T09:19:50.688Z,100.00
2023-05-16T09:22:18.126Z,100.00
2023-05-16T09:24:46.287Z,100.00
2023-05-16T09:27:16.005Z,100.00
2023-05-16T09:29:44.187Z,100.00
2023-05-16T09:32:15.609Z,100.00
2023-05-16T09:34:48.994Z,100.00
2023-05-16T09:37:16.430Z,100.00
2023-05-16T09:39:51.565Z,100.00
2023-05-16T09:42:20.070Z,100.00
2023-05-16T09:44:49.056Z,100.00
2023-05-16T09:47:17.625Z,100.00
2023-05-16T09:49:46.306Z,100.00
2023-05-16T09:52:16.676Z,100.00
2023-05-16T09:54:43.700Z,100.00
2023-05-16T09:57:10.540Z,100.00
2023-05-16T09:59:38.809Z,100.00
2023-05-16T10:02:07.888Z,100.00
2023-05-16T10:04:38.580Z,100.00
2023-05-16T10:07:06.928Z,100.00
2023-05-16T10:09:34.280Z,100.00
2023-05-16T10:12:04.342Z,100.00
2023-05-16T10:14:35.876Z,100.00
2023-05-16T10:17:04.821Z,100.00
2023-05-16T10:19:33.092Z,100.00
2023-05-16T10:22:04.396Z,100.00
2023-05-16T10:25:03.943Z,100.00
2023-05-16T10:27:31.618Z,100.00
2023-05-16T10:29:58.799Z,100.00
2023-05-16T10:32:26.829Z,100.00
2023-05-16T10:34:56.093Z,100.00
2023-05-16T10:37:24.641Z,100.00
2023-05-16T10:39:52.188Z,100.00
2023-05-16T10:42:20.237Z,100.00
2023-05-16T10:44:58.510Z,100.00
2023-05-16T10:47:32.101Z,100.00
2023-05-16T10:49:58.845Z,100.00
2023-05-16T10:52:34.396Z,100.00
2023-05-16T10:55:04.983Z,100.00
2023-05-16T10:57:33.728Z,100.00
2023-05-16T11:00:02.174Z,100.00
2023-05-16T11:02:30.271Z,100.00
2023-05-16T11:04:59.747Z,100.00
2023-05-16T11:07:32.747Z,100.00
2023-05-16T11:10:11.249Z,100.00
2023-05-16T11:12:45.654Z,100.00
2023-05-16T11:15:27.365Z,100.00
2023-05-16T11:18:08.388Z,100.00
2023-05-16T11:20:37.439Z,100.00
2023-05-16T11:23:20.010Z,100.00
2023-05-16T11:25:55.357Z,100.00
2023-05-16T11:28:24.931Z,100.00
2023-05-16T11:30:56.170Z,100.00
2023-05-16T11:33:24.637Z,100.00
2023-05-16T11:36:15.374Z,100.00
2023-05-16T11:38:44.130Z,100.00
2023-05-16T11:41:11.690Z,100.00
2023-05-16T11:43:44.847Z,100.00
2023-05-16T11:46:16.496Z,100.00
2023-05-16T11:48:45.406Z,100.00
2023-05-16T11:51:12.348Z,100.00
2023-05-16T11:53:39.762Z,100.00
2023-05-16T11:56:08.664Z,100.00
2023-05-16T11:58:36.771Z,100.00
2023-05-16T12:01:04.977Z,100.00
2023-05-16T12:03:36.105Z,100.00
2023-05-16T12:06:03.121Z,100.00
2023-05-16T12:08:30.832Z,100.00
2023-05-16T12:10:57.693Z,100.00
2023-05-16T12:13:25.729Z,100.00
2023-05-16T12:15:52.965Z,100.00
2023-05-16T12:18:21.643Z,100.00
2023-05-16T12:20:48.651Z,100.00
2023-05-16T12:23:16.469Z,100.00
2023-05-16T12:25:47.812Z,100.00
2023-05-16T12:28:15.059Z,100.00
2023-05-16T12:30:43.270Z,100.00
2023-05-16T12:33:13.076Z,100.00
2023-05-16T12:35:41.935Z,100.00
2023-05-16T12:38:13.356Z,100.00
2023-05-16T12:40:42.227Z,100.00
2023-05-16T12:43:20.049Z,100.00
2023-05-16T12:45:54.998Z,100.00
2023-05-16T12:48:23.052Z,100.00
2023-05-16T12:50:49.880Z,100.00
2023-05-16T12:53:18.500Z,100.00
2023-05-16T12:55:45.642Z,100.00
2023-05-16T12:58:12.931Z,100.00
2023-05-16T13:00:39.885Z,100.00
2023-05-16T13:03:08.005Z,100.00
2023-05-16T13:05:36.543Z,100.00
2023-05-16T13:08:04.161Z,100.00
2023-05-16T13:10:31.415Z,100.00
2023-05-16T13:13:01.473Z,100.00
2023-05-16T13:15:28.636Z,100.00
2023-05-16T13:17:55.758Z,100.00
2023-05-16T13:20:22.570Z,98.89
2023-05-16T13:22:49.318Z,98.77
2023-05-16T13:25:16.268Z,98.94
2023-05-16T13:27:43.124Z,96.92
2023-05-16T13:30:10.179Z,98.77
2023-05-16T13:32:37.024Z,97.80
2023-05-16T13:35:04.293Z,98.58
2023-05-16T13:37:31.504Z,100.00
2023-05-16T13:39:58.319Z,99.93
2023-05-16T13:42:25.277Z,96.86
2023-05-16T13:44:52.188Z,98.80
2023-05-16T13:47:19.042Z,97.58
2023-05-16T13:49:46.249Z,98.41
2023-05-16T13:52:13.236Z,97.13
2023-05-16T13:54:41.563Z,97.10
2023-05-16T13:57:08.703Z,98.00
2023-05-16T14:00:03.450Z,98.48
2023-05-16T14:02:22.349Z,96.78
2023-05-16T14:04:50.103Z,99.71
2023-05-16T14:07:17.023Z,100.00
2023-05-16T14:09:44.670Z,100.00
2023-05-16T14:12:11.657Z,100.00
2023-05-16T14:14:38.391Z,100.00
2023-05-16T14:17:05.420Z,100.00
2023-05-16T14:19:34.442Z,100.00
2023-05-16T14:22:01.238Z,99.14
2023-05-16T14:24:28.071Z,99.84
2023-05-16T14:26:55.368Z,100.00
2023-05-16T14:29:22.752Z,100.00
2023-05-16T14:31:49.606Z,100.00
2023-05-16T14:34:16.366Z,100.00
2023-05-16T14:36:43.786Z,99.85
2023-05-16T14:39:10.624Z,99.11
2023-05-16T14:41:37.541Z,98.13
2023-05-16T14:44:04.442Z,96.86
2023-05-16T14:46:31.213Z,96.44
2023-05-16T14:48:57.924Z,96.96
2023-05-16T14:51:24.687Z,98.79
2023-05-16T14:53:51.412Z,98.81
2023-05-16T14:56:18.219Z,99.71
2023-05-16T14:58:44.973Z,100.00
2023-05-16T15:01:11.797Z,99.69
2023-05-16T15:03:53.676Z,100.00
2023-05-16T15:06:21.905Z,100.00
2023-05-16T15:08:48.583Z,100.00
2023-05-16T15:11:15.305Z,100.00
2023-05-16T15:13:47.779Z,100.00
2023-05-16T15:16:14.813Z,100.00
2023-05-16T15:18:41.857Z,100.00
2023-05-16T15:21:09.198Z,100.00
2023-05-16T15:23:36.829Z,100.00
2023-05-16T15:26:04.184Z,100.00
2023-05-16T15:28:30.901Z,100.00
2023-05-16T15:30:57.609Z,100.00
2023-05-16T15:33:24.387Z,100.00
2023-05-16T15:35:51.943Z,100.00
2023-05-16T15:38:18.859Z,100.00
2023-05-16T15:40:45.550Z,100.00
2023-05-16T15:43:12.246Z,100.00
2023-05-16T15:45:40.361Z,100.00
2023-05-16T15:48:07.710Z,100.00
2023-05-16T15:50:34.590Z,100.00
2023-05-16T15:53:01.467Z,100.00
2023-05-16T15:55:28.587Z,100.00
2023-05-16T15:57:57.456Z,100.00
2023-05-16T16:00:25.017Z,100.00
2023-05-16T16:02:52.144Z,100.00
2023-05-16T16:05:19.022Z,100.00
2023-05-16T16:07:45.718Z,100.00
2023-05-16T16:10:12.563Z,100.00
2023-05-16T16:12:39.514Z,100.00
2023-05-16T16:15:06.975Z,100.00
2023-05-16T16:17:33.772Z,100.00
2023-05-16T16:20:00.602Z,100.00
2023-05-16T16:22:27.623Z,100.00
2023-05-16T16:24:54.411Z,100.00
2023-05-16T16:27:21.153Z,100.00
2023-05-16T16:29:47.886Z,100.00
2023-05-16T16:32:14.540Z,100.00
2023-05-16T16:34:41.334Z,100.00
2023-05-16T16:37:10.073Z,100.00
2023-05-16T16:39:37.303Z,100.00
2023-05-16T16:42:04.213Z,100.00
2023-05-16T16:44:31.102Z,100.00
2023-05-16T16:46:57.955Z,100.00
2023-05-16T16:49:24.635Z,100.00
2023-05-16T16:51:51.326Z,100.00
2023-05-16T16:54:18.018Z,99.77
2023-05-16T16:56:46.124Z,100.00
2023-05-16T16:59:12.819Z,100.00
2023-05-16T17:01:39.716Z,100.00
2023-05-16T17:04:06.526Z,100.00
2023-05-16T17:06:33.365Z,100.00
2023-05-16T17:09:05.210Z,100.00
2023-05-16T17:11:35.984Z,100.00
2023-05-16T17:14:05.928Z,100.00
2023-05-16T17:16:33.371Z,100.00
2023-05-16T17:19:00.231Z,100.00
2023-05-16T17:21:28.098Z,100.00
2023-05-16T17:23:55.230Z,100.00
2023-05-16T17:26:22.235Z,100.00
2023-05-16T17:28:49.612Z,100.00
2023-05-16T17:31:16.952Z,100.00
2023-05-16T17:33:43.684Z,100.00
2023-05-16T17:36:10.971Z,100.00
2023-05-16T17:38:37.833Z,100.00
2023-05-16T17:41:04.594Z,100.00
2023-05-16T17:43:31.340Z,100.00
2023-05-16T17:45:58.182Z,100.00
2023-05-16T17:48:24.985Z,100.00
2023-05-16T17:50:51.751Z,100.00
2023-05-16T17:53:18.597Z,100.00
2023-05-16T17:55:45.371Z,100.00
2023-05-16T17:58:12.968Z,100.00
2023-05-16T18:00:39.781Z,100.00
2023-05-16T18:03:07.030Z,100.00
2023-05-16T18:05:34.150Z,100.00
2023-05-16T18:08:01.083Z,100.00
2023-05-16T18:10:33.775Z,100.00
2023-05-16T18:13:06.896Z,100.00
2023-05-16T18:15:35.496Z,100.00
2023-05-16T18:18:02.382Z,100.00
2023-05-16T18:20:29.894Z,100.00
2023-05-16T18:22:56.713Z,100.00
2023-05-16T18:25:23.464Z,100.00
2023-05-16T18:27:50.366Z,100.00
2023-05-16T18:30:17.123Z,100.00
2023-05-16T18:32:44.048Z,99.93
2023-05-16T18:35:10.864Z,99.53
2023-05-16T18:37:37.707Z,99.27
2023-05-16T18:40:04.993Z,99.56
2023-05-16T18:42:31.723Z,100.00
2023-05-16T18:44:58.466Z,99.37
2023-05-16T18:47:26.946Z,99.15
2023-05-16T18:49:54.427Z,99.91
2023-05-16T18:52:21.319Z,99.12
2023-05-16T18:54:48.066Z,98.82
2023-05-16T18:57:15.151Z,98.63
2023-05-16T18:59:42.182Z,97.86
2023-05-16T19:02:08.979Z,98.09
2023-05-16T19:04:35.896Z,98.34
2023-05-16T19:07:04.790Z,98.71
2023-05-16T19:09:32.834Z,98.73
2023-05-16T19:11:59.556Z,97.72
2023-05-16T19:14:27.583Z,98.58
2023-05-16T19:16:54.655Z,99.09
2023-05-16T19:19:21.767Z,98.91
2023-05-16T19:21:48.765Z,99.09
2023-05-16T19:24:15.933Z,98.36
2023-05-16T19:26:42.788Z,97.83
2023-05-16T19:29:10.791Z,98.35
2023-05-16T19:31:37.523Z,97.47
2023-05-16T19:34:05.292Z,97.48
2023-05-16T19:36:32.152Z,98.04
2023-05-16T19:38:59.048Z,97.03
2023-05-16T19:41:26.404Z,96.99
2023-05-16T19:43:53.152Z,96.27
2023-05-16T19:46:19.841Z,96.82
2023-05-16T19:48:46.967Z,95.73
2023-05-16T19:51:13.828Z,96.08
2023-05-16T19:53:41.135Z,95.98
2023-05-16T19:56:09.711Z,96.54
2023-05-16T19:58:36.475Z,96.03
2023-05-16T20:01:03.271Z,96.49
2023-05-16T20:03:30.327Z,96.72
2023-05-16T20:05:57.108Z,96.81
2023-05-16T20:08:23.864Z,96.99
2023-05-16T20:10:50.581Z,97.58
2023-05-16T20:13:20.497Z,97.84
2023-05-16T20:15:50.225Z,97.44
2023-05-16T20:18:17.117Z,97.25
2023-05-16T20:20:43.946Z,98.01
2023-05-16T20:23:10.719Z,98.09
2023-05-16T20:25:37.553Z,97.73
2023-05-16T20:28:04.313Z,98.71
2023-05-16T20:30:32.444Z,98.05
2023-05-16T20:32:59.923Z,97.82
2023-05-16T20:35:27.003Z,97.94
2023-05-16T20:37:53.861Z,97.93
2023-05-16T20:40:21.184Z,97.21
2023-05-16T20:42:47.963Z,98.15
2023-05-16T20:45:14.955Z,96.90
2023-05-16T20:47:41.888Z,97.21
2023-05-16T20:50:09.196Z,97.82
2023-05-16T20:52:35.911Z,97.59
2023-05-16T20:55:02.618Z,97.99
2023-05-16T20:57:29.391Z,97.54
2023-05-16T20:59:56.091Z,97.72
2023-05-16T21:02:22.920Z,97.20
2023-05-16T21:04:49.659Z,96.74
2023-05-16T21:07:16.488Z,97.48
2023-05-16T21:09:43.293Z,97.46
2023-05-16T21:12:10.028Z,96.19
2023-05-16T21:14:36.760Z,96.11
2023-05-16T21:17:03.678Z,96.30
2023-05-16T21:19:34.625Z,96.78
2023-05-16T21:22:04.029Z,96.03
2023-05-16T21:24:35.090Z,96.23
2023-05-16T21:27:03.243Z,95.89
2023-05-16T21:29:30.156Z,96.02
2023-05-16T21:31:56.904Z,95.55
2023-05-16T21:34:23.629Z,94.45
2023-05-16T21:36:50.403Z,95.62
2023-05-16T21:39:17.226Z,95.39
2023-05-16T21:41:44.016Z,95.10
2023-05-16T21:44:13.584Z,95.96
2023-05-16T21:46:40.313Z,94.38
2023-05-16T21:49:07.084Z,94.24
2023-05-16T21:51:33.856Z,93.94
2023-05-16T21:54:03.168Z,94.14
2023-05-16T21:56:30.429Z,94.31
2023-05-16T21:58:57.949Z,93.33
2023-05-16T22:01:28.743Z,93.05
2023-05-16T22:03:57.396Z,92.75
2023-05-16T22:06:25.070Z,92.73
2023-05-16T22:08:51.849Z,92.04
2023-05-16T22:11:18.716Z,92.48
2023-05-16T22:13:45.563Z,92.74
2023-05-16T22:16:12.362Z,93.05
2023-05-16T22:18:39.230Z,93.18
2023-05-16T22:21:06.384Z,93.25
2023-05-16T22:23:33.098Z,93.35
2023-05-16T22:25:59.872Z,93.71
2023-05-16T22:28:26.850Z,93.43
2023-05-16T22:30:53.673Z,94.06
2023-05-16T22:33:22.691Z,94.29
2023-05-16T22:35:50.040Z,94.03
2023-05-16T22:38:16.887Z,94.63
2023-05-16T22:40:43.835Z,93.92
2023-05-16T22:43:10.814Z,93.88
2023-05-16T22:45:37.775Z,94.88
2023-05-16T22:48:05.192Z,94.48
2023-05-16T22:50:32.198Z,94.92
2023-05-16T22:52:59.232Z,95.56
2023-05-16T22:55:26.460Z,95.27
2023-05-16T22:57:57.226Z,94.85
2023-05-16T23:00:24.708Z,94.05
2023-05-16T23:02:52.186Z,95.31
2023-05-16T23:05:19.361Z,95.89
2023-05-16T23:07:46.414Z,95.94
2023-05-16T23:10:13.510Z,95.92
2023-05-16T23:12:40.656Z,95.26
2023-05-16T23:15:10.222Z,95.14
2023-05-16T23:17:38.545Z,95.77
2023-05-16T23:20:07.251Z,96.92
2023-05-16T23:22:34.270Z,96.14
2023-05-16T23:25:01.334Z,95.83
2023-05-16T23:27:28.349Z,97.62
2023-05-16T23:29:55.032Z,96.68
2023-05-16T23:32:22.016Z,96.54
2023-05-16T23:34:49.187Z,96.69
2023-05-16T23:37:16.193Z,97.50
2023-05-16T23:39:43.102Z,97.37
2023-05-16T23:42:09.820Z,96.75
2023-05-16T23:44:36.785Z,97.12
2023-05-16T23:47:03.549Z,96.92
2023-05-16T23:49:30.362Z,96.99
2023-05-16T23:51:58.212Z,97.07
2023-05-16T23:54:26.373Z,96.52
2023-05-16T23:56:53.142Z,97.09
2023-05-16T23:59:20.404Z,96.57
